Time;durP1;ratioP1;P1;durP2;ratioP2;P2;SDS_P1;SDS_P2;PMS_P1;PMS_P2;Temp;Humidity;BMP_temperature;BMP_pressure;BME280_temperature;BME280_humidity;BME280_pressure;Samples;Min_cycle;Max_cycle;Signal;HPM_P1;HPM_P2
2022/04/28 00:01:55;;;;;;;9.05;4.53;;;9.50;68.70;;;;;;5095422;28;20040;-81
2022/04/28 00:04:21;;;;;;;9.02;4.88;;;9.50;68.70;;;;;;5095262;28;20100;-81
2022/04/28 00:06:47;;;;;;;8.10;4.47;;;9.50;68.70;;;;;;5095128;28;20032;-81
2022/04/28 00:09:16;;;;;;;8.35;4.88;;;9.50;68.80;;;;;;5111928;28;20089;-81
2022/04/28 00:11:44;;;;;;;9.15;4.75;;;9.50;69.00;;;;;;5112072;28;20514;-80
2022/04/28 00:14:10;;;;;;;8.40;3.90;;;9.50;69.40;;;;;;5111965;28;20043;-82
2022/04/28 00:16:36;;;;;;;10.65;4.38;;;9.40;69.60;;;;;;5095131;28;20093;-81
2022/04/28 00:19:02;;;;;;;8.98;4.40;;;9.50;69.70;;;;;;5095416;28;20131;-82
2022/04/28 00:21:31;;;;;;;7.85;4.47;;;9.40;69.80;;;;;;5111966;28;20126;-81
2022/04/28 00:23:59;;;;;;;13.07;4.68;;;9.40;69.80;;;;;;5095775;28;20053;-80
2022/04/28 00:26:25;;;;;;;7.88;3.67;;;9.40;69.70;;;;;;5078450;28;20054;-80
2022/04/28 00:28:53;;;;;;;9.00;3.72;;;9.40;69.50;;;;;;5091523;28;20123;-80
2022/04/28 00:31:19;;;;;;;8.65;3.85;;;9.40;69.50;;;;;;5091462;28;20105;-81
2022/04/28 00:33:48;;;;;;;6.63;3.90;;;9.40;69.60;;;;;;5074809;28;20434;-81
2022/04/28 00:36:14;;;;;;;9.07;3.50;;;9.40;69.90;;;;;;5074513;28;20036;-81
2022/04/28 00:38:40;;;;;;;11.35;4.15;;;9.30;69.80;;;;;;5091474;28;20040;-81
2022/04/28 00:41:06;;;;;;;6.80;3.33;;;9.40;69.80;;;;;;5074528;28;20043;-79
2022/04/28 00:43:33;;;;;;;6.13;3.42;;;9.30;69.50;;;;;;5091465;28;20040;-81
2022/04/28 00:45:59;;;;;;;8.85;4.20;;;9.30;69.60;;;;;;5091357;28;20047;-82
2022/04/28 00:51:12;;;;;;;12.75;4.55;;;9.30;69.90;;;;;;5079361;28;20036;-79
2022/04/28 00:53:47;;;;;;;11.63;4.55;;;9.20;70.20;;;;;;5095098;28;20504;-81
2022/04/28 00:56:13;;;;;;;10.73;4.15;;;9.20;70.30;;;;;;5078410;28;20058;-81
2022/04/28 00:58:39;;;;;;;14.32;4.55;;;9.20;70.50;;;;;;5095081;28;20184;-81
2022/04/28 01:01:05;;;;;;;6.57;4.05;;;9.20;70.70;;;;;;5078019;28;20098;-81
2022/04/28 01:03:31;;;;;;;11.57;3.97;;;9.10;70.80;;;;;;5078084;28;20131;-81
2022/04/28 01:05:58;;;;;;;9.10;4.72;;;9.20;71.00;;;;;;5095042;28;20121;-82
2022/04/28 01:08:24;;;;;;;9.18;4.63;;;9.10;71.10;;;;;;5078047;28;20035;-81
2022/04/28 01:10:54;;;;;;;12.52;5.70;;;9.10;71.20;;;;;;5094923;28;20051;-82
2022/04/28 01:13:20;;;;;;;7.03;3.55;;;9.10;71.30;;;;;;5095139;28;20073;-82
2022/04/28 01:15:47;;;;;;;7.88;3.83;;;9.10;71.50;;;;;;5094772;28;20391;-82
2022/04/28 01:18:14;;;;;;;11.77;4.82;;;9.00;71.50;;;;;;5061739;28;20082;-81
2022/04/28 01:20:40;;;;;;;9.40;3.63;;;9.00;71.60;;;;;;5077659;28;20048;-80
2022/04/28 01:23:06;;;;;;;8.50;3.83;;;9.00;71.60;;;;;;5077850;28;20062;-82
2022/04/28 01:25:32;;;;;;;11.27;3.88;;;9.00;71.70;;;;;;5094560;28;20059;-81
2022/04/28 01:27:59;;;;;;;11.60;4.40;;;9.00;71.70;;;;;;5066069;28;20051;-81
2022/04/28 01:30:25;;;;;;;8.82;3.97;;;9.00;71.60;;;;;;5114830;28;20039;-81
2022/04/28 01:32:57;;;;;;;11.50;4.30;;;9.00;71.60;;;;;;5098110;28;20052;-82
2022/04/28 01:35:26;;;;;;;9.32;4.20;;;9.00;71.50;;;;;;5115093;28;20406;-79
2022/04/28 01:37:52;;;;;;;7.55;3.53;;;9.00;71.50;;;;;;5114731;28;20099;-81
2022/04/28 01:40:18;;;;;;;10.73;4.13;;;9.00;71.40;;;;;;5097787;28;20097;-81
2022/04/28 01:42:46;;;;;;;6.78;4.20;;;9.00;71.60;;;;;;5114710;28;20043;-82
2022/04/28 01:45:12;;;;;;;11.80;4.20;;;9.00;71.50;;;;;;5114844;28;20043;-81
2022/04/28 01:47:39;;;;;;;12.05;4.60;;;9.00;71.60;;;;;;5114508;28;20495;-82
2022/04/28 01:50:06;;;;;;;8.40;4.72;;;8.90;71.70;;;;;;5114472;28;20044;-82
2022/04/28 01:55:16;;;;;;;7.90;5.03;;;8.90;71.30;;;;;;5100151;28;20047;-81
2022/04/28 01:57:43;;;;;;;11.57;5.40;;;8.90;71.20;;;;;;5097411;28;20130;-82
2022/04/28 02:00:09;;;;;;;8.75;4.70;;;8.90;71.10;;;;;;5114202;28;20048;-81
2022/04/28 02:02:35;;;;;;;10.50;3.47;;;8.90;70.80;;;;;;5097070;28;20492;-81
2022/04/28 02:05:06;;;;;;;7.55;3.63;;;8.90;70.20;;;;;;5097211;28;20078;-82
2022/04/28 02:07:32;;;;;;;10.07;4.30;;;8.80;69.60;;;;;;5114626;28;20108;-82
2022/04/28 02:10:00;;;;;;;8.35;3.35;;;8.80;69.70;;;;;;5114355;28;20079;-81
2022/04/28 02:12:26;;;;;;;7.22;3.97;;;8.80;69.40;;;;;;5114188;28;20077;-81
2022/04/28 02:14:53;;;;;;;6.82;4.03;;;8.80;69.20;;;;;;5097047;28;20503;-80
2022/04/28 02:17:39;;;;;;;7.70;4.68;;;8.80;69.30;;;;;;5114089;28;20051;-82
2022/04/28 02:20:06;;;;;;;9.27;4.80;;;8.80;69.60;;;;;;5097058;28;20042;-81
2022/04/28 02:22:32;;;;;;;9.20;5.63;;;8.80;69.80;;;;;;5097118;28;20558;-79
2022/04/28 02:24:58;;;;;;;8.35;4.90;;;8.70;69.90;;;;;;5114067;28;20172;-81
2022/04/28 02:27:24;;;;;;;12.80;5.35;;;8.70;70.30;;;;;;5097272;27;20510;-82
2022/04/28 02:29:51;;;;;;;10.25;4.97;;;8.70;70.50;;;;;;5117157;27;20039;-81
2022/04/28 02:32:16;;;;;;;8.48;4.85;;;8.60;70.50;;;;;;5100268;27;20042;-81
2022/04/28 02:34:42;;;;;;;7.65;4.50;;;8.60;70.70;;;;;;5117094;27;20039;-81
2022/04/28 02:37:08;;;;;;;15.27;5.95;;;8.60;70.70;;;;;;5117035;27;20130;-81
2022/04/28 02:39:34;;;;;;;8.93;3.75;;;8.60;70.90;;;;;;5117192;27;20082;-80
2022/04/28 02:42:00;;;;;;;11.73;5.70;;;8.60;70.90;;;;;;5117189;27;20479;-82
2022/04/28 02:44:25;;;;;;;9.93;4.82;;;8.60;70.80;;;;;;5099980;27;20486;-83
2022/04/28 02:46:51;;;;;;;9.85;4.63;;;8.60;70.90;;;;;;5116890;27;20376;-80
2022/04/28 02:49:20;;;;;;;11.48;5.47;;;8.60;70.80;;;;;;5116995;27;20031;-80
2022/04/28 02:51:46;;;;;;;12.13;5.82;;;8.60;70.70;;;;;;5116754;27;20478;-82
2022/04/28 02:54:12;;;;;;;14.27;5.93;;;8.60;70.70;;;;;;5116707;27;20122;-79
2022/04/28 02:56:38;;;;;;;11.02;5.38;;;8.50;70.30;;;;;;5116585;27;20130;-80
2022/04/28 02:59:05;;;;;;;11.90;5.35;;;8.50;70.20;;;;;;5099714;27;20073;-78
2022/04/28 03:01:31;;;;;;;10.82;5.07;;;8.50;70.10;;;;;;5099626;27;20558;-79
2022/04/28 03:03:56;;;;;;;9.18;4.45;;;8.50;70.10;;;;;;5099522;27;20077;-79
2022/04/28 03:11:52;;;;;;;8.63;4.10;;;8.50;70.70;;;;;;5102263;27;19922;-80
2022/04/28 03:14:20;;;;;;;8.07;4.18;;;8.60;70.30;;;;;;5116016;27;20042;-80
2022/04/28 03:16:46;;;;;;;10.50;4.40;;;8.60;70.40;;;;;;5099668;27;20035;-78
2022/04/28 03:19:11;;;;;;;11.77;4.10;;;8.60;70.40;;;;;;5116204;27;20410;-78
2022/04/28 03:21:37;;;;;;;8.75;4.20;;;8.60;70.30;;;;;;5099109;27;20035;-82
2022/04/28 03:24:04;;;;;;;9.38;3.55;;;8.60;70.30;;;;;;5082259;27;20047;-78
2022/04/28 03:26:31;;;;;;;7.43;3.40;;;8.60;70.50;;;;;;5116308;27;20061;-78
2022/04/28 03:28:57;;;;;;;8.52;3.92;;;8.60;70.50;;;;;;5116003;27;20047;-80
2022/04/28 03:31:24;;;;;;;8.73;3.70;;;8.50;70.50;;;;;;5115944;27;20445;-79
2022/04/28 03:33:50;;;;;;;8.07;4.60;;;8.60;70.50;;;;;;5116236;27;20043;-79
2022/04/28 03:39:00;;;;;;;12.43;5.07;;;8.60;70.90;;;;;;5116011;27;20487;-79
2022/04/28 03:41:27;;;;;;;11.57;4.90;;;8.50;71.00;;;;;;5098852;27;20126;-79
2022/04/28 03:43:53;;;;;;;10.35;4.72;;;8.50;71.10;;;;;;5098777;27;20039;-80
2022/04/28 03:46:19;;;;;;;12.20;5.28;;;8.60;70.80;;;;;;5098939;27;20476;-78
2022/04/28 03:48:45;;;;;;;6.82;4.50;;;8.60;70.80;;;;;;5115660;28;20115;-78
2022/04/28 03:51:12;;;;;;;9.98;4.53;;;8.60;70.80;;;;;;5115718;27;20035;-79
2022/04/28 03:53:38;;;;;;;8.20;5.25;;;8.60;70.60;;;;;;5099047;27;20369;-79
2022/04/28 03:56:04;;;;;;;8.52;4.55;;;8.60;70.80;;;;;;5081904;27;20039;-78
2022/04/28 03:58:30;;;;;;;11.05;4.20;;;8.60;70.80;;;;;;5098532;27;20086;-79
2022/04/28 04:00:55;;;;;;;6.20;4.30;;;8.60;70.80;;;;;;5115499;27;20083;-79
2022/04/28 04:03:21;;;;;;;7.13;3.72;;;8.60;70.60;;;;;;5115823;28;20043;-79
2022/04/28 04:05:47;;;;;;;13.23;3.80;;;8.70;70.60;;;;;;5115484;27;20047;-78
2022/04/28 04:08:14;;;;;;;8.75;3.80;;;8.70;70.30;;;;;;5098462;28;20088;-79
2022/04/28 04:10:40;;;;;;;10.52;3.83;;;8.70;70.40;;;;;;5115325;28;20040;-81
2022/04/28 04:13:05;;;;;;;12.25;4.07;;;8.80;70.40;;;;;;5081811;28;20038;-81
2022/04/28 04:15:32;;;;;;;7.85;3.92;;;8.70;70.30;;;;;;5115074;28;20084;-81
2022/04/28 04:17:58;;;;;;;10.35;4.30;;;8.70;70.20;;;;;;5114966;28;20505;-80
2022/04/28 04:20:25;;;;;;;9.95;4.90;;;8.80;70.20;;;;;;5115035;28;20499;-80
2022/04/28 04:22:51;;;;;;;8.57;4.40;;;8.80;70.30;;;;;;5115204;28;20112;-79
2022/04/28 04:25:23;;;;;;;6.40;3.80;;;8.80;70.30;;;;;;5100900;27;20046;-83
2022/04/28 04:27:49;;;;;;;13.30;5.15;;;8.80;70.00;;;;;;5085579;27;20127;-80
2022/04/28 04:32:59;;;;;;;9.27;5.35;;;8.80;70.70;;;;;;5119522;27;20513;-81
2022/04/28 04:35:25;;;;;;;12.35;5.07;;;8.80;70.70;;;;;;5119588;27;20042;-80
2022/04/28 04:37:53;;;;;;;9.00;5.45;;;8.80;71.00;;;;;;5102464;27;20070;-79
2022/04/28 04:40:19;;;;;;;8.63;5.53;;;8.80;71.20;;;;;;5102309;27;20122;-82
2022/04/28 04:42:44;;;;;;;7.55;4.63;;;8.80;71.30;;;;;;5119238;27;20092;-79
2022/04/28 04:45:11;;;;;;;8.52;4.90;;;8.80;71.40;;;;;;5102276;27;20043;-80
2022/04/28 04:47:37;;;;;;;7.07;4.93;;;8.80;71.60;;;;;;5119365;27;20518;-80
2022/04/28 04:50:05;;;;;;;14.88;5.38;;;8.80;71.80;;;;;;5119290;27;20054;-81
2022/04/28 04:52:31;;;;;;;8.98;4.60;;;8.90;71.90;;;;;;5119433;27;20416;-79
2022/04/28 04:54:57;;;;;;;10.10;4.57;;;8.90;71.90;;;;;;5119011;27;20091;-81
2022/04/28 04:57:24;;;;;;;8.77;5.18;;;8.90;72.00;;;;;;5119430;27;20042;-80
2022/04/28 04:59:49;;;;;;;11.50;5.38;;;8.90;72.10;;;;;;5119478;27;20092;-79
2022/04/28 05:02:15;;;;;;;9.25;5.32;;;9.00;72.50;;;;;;5119015;27;20420;-81
2022/04/28 05:04:41;;;;;;;12.13;5.10;;;9.00;73.00;;;;;;5119041;27;20038;-81
2022/04/28 05:07:06;;;;;;;10.15;4.80;;;9.00;73.40;;;;;;5101754;27;20064;-80
2022/04/28 05:09:32;;;;;;;11.25;5.43;;;9.00;73.90;;;;;;5085132;27;20144;-80
2022/04/28 05:11:58;;;;;;;11.23;6.60;;;9.00;74.30;;;;;;5068082;27;20034;-80
2022/04/28 05:14:23;;;;;;;9.75;4.93;;;9.00;74.50;;;;;;5118675;27;20039;-79
2022/04/28 05:16:49;;;;;;;12.20;5.28;;;9.00;75.10;;;;;;5101834;27;20039;-79
2022/04/28 05:19:15;;;;;;;11.75;5.65;;;9.00;75.10;;;;;;5101586;27;20043;-80
2022/04/28 05:21:40;;;;;;;7.90;3.95;;;9.10;75.50;;;;;;5118555;27;20399;-78
2022/04/28 05:24:06;;;;;;;9.73;4.47;;;9.00;75.50;;;;;;5084622;27;20121;-81
2022/04/28 05:26:32;;;;;;;10.73;3.40;;;9.10;75.70;;;;;;5101358;27;20039;-81
2022/04/28 05:28:57;;;;;;;8.07;3.30;;;9.10;75.80;;;;;;5101185;27;20407;-80
2022/04/28 05:31:23;;;;;;;11.88;3.15;;;9.10;76.40;;;;;;5118619;27;20035;-81
2022/04/28 05:33:49;;;;;;;11.52;3.30;;;9.10;76.00;;;;;;5118763;27;20043;-80
2022/04/28 05:36:16;;;;;;;10.55;3.45;;;9.10;76.30;;;;;;5100723;27;20406;-81
2022/04/28 05:38:43;;;;;;;7.97;3.40;;;9.10;76.40;;;;;;5101568;27;20082;-81
2022/04/28 05:41:09;;;;;;;11.30;3.60;;;9.10;76.40;;;;;;5101418;27;20384;-80
2022/04/28 05:46:20;;;;;;;7.38;2.90;;;9.10;76.50;;;;;;5117981;27;20126;-81
2022/04/28 05:48:46;;;;;;;6.38;2.33;;;9.10;76.60;;;;;;5100949;27;20467;-82
2022/04/28 05:51:12;;;;;;;8.45;3.35;;;9.20;76.80;;;;;;5101095;27;20082;-82
2022/04/28 05:53:38;;;;;;;7.65;3.88;;;9.20;76.60;;;;;;5117975;27;20067;-79
2022/04/28 05:56:05;;;;;;;10.43;3.25;;;9.20;76.70;;;;;;5100959;27;20091;-81
2022/04/28 05:58:31;;;;;;;8.02;3.03;;;9.20;76.60;;;;;;5067475;27;20269;-80
2022/04/28 06:00:57;;;;;;;10.30;3.42;;;9.20;76.70;;;;;;5100888;27;20058;-79
2022/04/28 06:03:22;;;;;;;11.50;4.13;;;9.30;76.60;;;;;;5100828;27;20039;-81
2022/04/28 06:05:48;;;;;;;8.45;3.80;;;9.30;76.50;;;;;;5100801;27;20043;-81
2022/04/28 06:08:14;;;;;;;9.13;3.45;;;9.40;76.50;;;;;;5083768;27;20226;-82
2022/04/28 06:10:39;;;;;;;7.55;3.85;;;9.40;76.30;;;;;;5084060;27;20387;-79
2022/04/28 06:13:05;;;;;;;6.47;3.58;;;9.50;76.30;;;;;;5100899;27;20475;-82
2022/04/28 06:15:31;;;;;;;4.88;3.40;;;9.50;76.30;;;;;;5117470;27;20499;-82
2022/04/28 06:17:57;;;;;;;10.77;3.30;;;9.50;76.10;;;;;;5100570;27;20049;-81
2022/04/28 06:20:23;;;;;;;9.20;2.92;;;9.50;76.00;;;;;;5117622;27;20130;-81
2022/04/28 06:22:48;;;;;;;9.77;3.45;;;9.60;75.90;;;;;;5117288;27;20046;-81
2022/04/28 06:25:14;;;;;;;7.75;3.28;;;9.60;75.80;;;;;;5083651;27;20126;-82
2022/04/28 06:27:40;;;;;;;6.28;3.42;;;9.60;75.50;;;;;;5117302;27;20075;-82
2022/04/28 06:30:06;;;;;;;6.63;3.10;;;9.70;75.00;;;;;;5084920;28;20050;-81
2022/04/28 06:32:32;;;;;;;9.68;3.38;;;9.60;74.70;;;;;;5104230;27;20443;-78
2022/04/28 06:34:58;;;;;;;7.72;2.92;;;9.70;74.80;;;;;;5079902;27;20233;-80
2022/04/28 06:37:24;;;;;;;6.03;2.85;;;9.80;74.50;;;;;;5099272;27;20035;-82
2022/04/28 06:39:50;;;;;;;7.57;3.13;;;9.80;74.20;;;;;;5059379;27;20134;-79
2022/04/28 06:42:16;;;;;;;8.18;3.08;;;9.80;73.90;;;;;;5091725;27;20035;-81
2022/04/28 06:44:41;;;;;;;8.80;3.33;;;9.90;73.80;;;;;;5097001;27;20507;-80
2022/04/28 06:47:07;;;;;;;11.18;3.25;;;9.90;73.60;;;;;;5097490;27;20052;-80
2022/04/28 06:49:34;;;;;;;9.55;3.33;;;10.00;73.30;;;;;;5079076;27;20043;-80
2022/04/28 06:52:00;;;;;;;9.45;4.10;;;10.00;73.00;;;;;;5079909;27;20069;-79
2022/04/28 06:54:26;;;;;;;7.00;2.72;;;10.00;73.20;;;;;;5098632;28;20046;-79
2022/04/28 06:56:52;;;;;;;8.05;2.75;;;10.00;73.00;;;;;;5097994;28;20047;-81
2022/04/28 06:59:18;;;;;;;4.65;2.30;;;10.00;73.10;;;;;;5082353;27;20674;-81
2022/04/28 07:01:44;;;;;;;10.82;2.60;;;10.00;73.00;;;;;;5081642;27;20126;-80
2022/04/28 07:04:09;;;;;;;7.88;2.40;;;10.00;72.80;;;;;;5094938;27;20130;-79
2022/04/28 07:06:35;;;;;;;10.82;2.60;;;10.00;72.50;;;;;;5095429;27;20032;-79
2022/04/28 07:09:01;;;;;;;6.75;2.50;;;10.00;72.20;;;;;;5072173;27;20047;-78
2022/04/28 07:11:26;;;;;;;8.20;2.88;;;10.00;72.40;;;;;;5096899;28;20032;-79
2022/04/28 07:13:52;;;;;;;7.10;2.25;;;10.10;72.40;;;;;;5077334;27;20035;-79
2022/04/28 07:16:18;;;;;;;6.97;2.22;;;10.10;72.40;;;;;;5098635;27;20039;-80
2022/04/28 07:18:44;;;;;;;4.57;2.03;;;10.10;71.90;;;;;;5065423;27;20138;-80
2022/04/28 07:21:10;;;;;;;7.88;2.20;;;10.10;71.70;;;;;;5097663;27;20130;-80
2022/04/28 07:23:36;;;;;;;9.73;2.40;;;10.10;71.30;;;;;;5096016;27;20043;-81
2022/04/28 07:26:02;;;;;;;11.38;2.20;;;10.10;71.50;;;;;;5096424;27;20086;-81
2022/04/28 07:28:28;;;;;;;7.35;1.92;;;10.20;71.40;;;;;;5080922;27;20492;-79
2022/04/28 07:31:03;;;;;;;5.25;1.70;;;10.20;70.90;;;;;;5082367;27;20036;-80
2022/04/28 07:33:29;;;;;;;8.40;2.05;;;10.20;70.60;;;;;;5099433;27;20554;-79
2022/04/28 07:35:55;;;;;;;5.25;1.90;;;10.20;71.10;;;;;;5062500;28;20065;-78
2022/04/28 07:38:22;;;;;;;6.25;2.33;;;10.20;71.10;;;;;;5098752;27;20406;-77
2022/04/28 07:40:48;;;;;;;7.25;2.22;;;10.10;71.00;;;;;;5097677;27;20051;-80
2022/04/28 07:43:14;;;;;;;6.60;1.67;;;10.10;71.30;;;;;;5094039;28;20120;-79
2022/04/28 07:45:40;;;;;;;8.18;2.00;;;10.10;71.10;;;;;;5098145;27;20043;-81
2022/04/28 07:48:06;;;;;;;6.97;1.85;;;10.10;71.40;;;;;;5103243;27;20047;-81
2022/04/28 07:50:32;;;;;;;8.10;2.15;;;10.10;71.70;;;;;;5099652;27;20050;-79
2022/04/28 07:52:57;;;;;;;8.05;2.60;;;10.20;71.70;;;;;;5082634;27;20390;-80
2022/04/28 07:55:23;;;;;;;12.82;2.92;;;10.20;71.70;;;;;;5082615;27;20648;-80
2022/04/28 07:57:49;;;;;;;8.48;2.85;;;10.30;71.70;;;;;;5064887;28;20044;-79
2022/04/28 08:00:15;;;;;;;10.18;2.53;;;10.30;71.50;;;;;;5095187;27;20051;-80
2022/04/28 08:02:40;;;;;;;7.30;2.47;;;10.40;71.10;;;;;;5079153;27;20050;-79
2022/04/28 08:05:06;;;;;;;5.32;2.70;;;10.50;70.80;;;;;;5100068;28;20039;-79
2022/04/28 08:07:35;;;;;;;10.30;2.70;;;10.60;70.70;;;;;;5064674;27;20119;-78
2022/04/28 08:10:04;;;;;;;9.50;2.28;;;10.80;70.50;;;;;;5083265;28;20035;-78
2022/04/28 08:12:29;;;;;;;5.32;1.90;;;10.80;70.00;;;;;;5077557;28;20032;-82
2022/04/28 08:14:55;;;;;;;10.52;2.47;;;10.90;69.30;;;;;;5077032;28;20066;-80
2022/04/28 08:17:21;;;;;;;9.48;2.30;;;10.90;69.30;;;;;;5079798;28;20058;-82
2022/04/28 08:19:47;;;;;;;6.70;1.92;;;11.00;69.50;;;;;;5080221;28;20158;-82
2022/04/28 08:22:13;;;;;;;6.65;2.97;;;11.00;69.10;;;;;;5081525;28;20260;-80
2022/04/28 08:24:38;;;;;;;6.95;2.30;;;11.00;69.00;;;;;;5064384;28;20718;-82
2022/04/28 08:27:04;;;;;;;7.05;2.10;;;11.00;69.00;;;;;;5082239;28;20081;-81
2022/04/28 08:29:30;;;;;;;9.80;2.40;;;11.00;68.90;;;;;;5102597;28;20048;-81
2022/04/28 08:31:55;;;;;;;7.32;2.15;;;11.00;68.80;;;;;;5079615;28;20047;-82
2022/04/28 08:34:22;;;;;;;8.95;2.20;;;11.00;68.30;;;;;;5094210;28;20184;-81
2022/04/28 08:36:49;;;;;;;8.35;2.25;;;11.10;68.20;;;;;;5097201;28;20074;-82
2022/04/28 08:39:15;;;;;;;8.30;2.10;;;11.10;68.10;;;;;;5099366;27;20074;-80
2022/04/28 08:41:45;;;;;;;6.28;2.10;;;11.10;67.60;;;;;;5079034;28;20048;-81
2022/04/28 08:44:26;;;;;;;9.30;2.55;;;11.20;67.10;;;;;;5097761;28;20566;-82
2022/04/28 08:46:54;;;;;;;8.50;2.58;;;11.20;67.40;;;;;;5076999;28;20039;-83
2022/04/28 08:49:24;;;;;;;9.13;2.30;;;11.20;67.50;;;;;;5100640;28;20067;-82
2022/04/28 08:51:52;;;;;;;7.10;1.98;;;11.20;67.80;;;;;;5096563;28;20126;-81
2022/04/28 08:54:19;;;;;;;6.32;2.10;;;11.30;67.40;;;;;;5098656;28;20035;-82
2022/04/28 08:56:45;;;;;;;6.40;2.25;;;11.30;67.40;;;;;;5077213;28;20053;-81
2022/04/28 08:59:13;;;;;;;7.43;2.30;;;11.30;67.20;;;;;;5077553;28;20058;-81
2022/04/28 09:01:39;;;;;;;5.60;2.08;;;11.30;67.30;;;;;;5098297;28;20079;-81
2022/04/28 09:04:05;;;;;;;9.02;2.25;;;11.40;66.90;;;;;;5097765;28;20126;-83
2022/04/28 09:06:36;;;;;;;7.93;2.63;;;11.30;66.80;;;;;;5078682;28;20062;-81
2022/04/28 09:09:08;;;;;;;5.63;2.22;;;11.40;66.70;;;;;;5101159;28;20055;-84
2022/04/28 09:11:37;;;;;;;8.52;2.20;;;11.40;66.90;;;;;;5098147;27;20074;-81
2022/04/28 09:14:15;;;;;;;7.45;2.50;;;11.40;67.20;;;;;;5096516;27;20039;-83
2022/04/28 09:16:50;;;;;;;7.65;2.88;;;11.40;67.30;;;;;;5100743;27;20092;-83
2022/04/28 09:19:22;;;;;;;8.73;2.40;;;11.50;67.00;;;;;;5082965;27;20591;-83
2022/04/28 09:22:02;;;;;;;9.52;2.50;;;11.50;66.80;;;;;;5087297;27;20099;-83
2022/04/28 09:24:28;;;;;;;7.22;2.38;;;11.50;67.00;;;;;;5100330;27;20053;-81
2022/04/28 09:26:55;;;;;;;8.68;2.72;;;11.60;66.60;;;;;;5101820;27;20097;-83
2022/04/28 09:29:22;;;;;;;9.45;2.40;;;11.50;66.70;;;;;;5083238;27;20537;-79
2022/04/28 09:31:50;;;;;;;11.75;2.60;;;11.50;66.70;;;;;;5087104;27;20050;-78
2022/04/28 09:34:21;;;;;;;10.18;3.88;;;11.50;66.50;;;;;;5101944;27;20059;-79
2022/04/28 09:36:48;;;;;;;13.32;2.97;;;11.50;66.70;;;;;;5079216;27;20138;-80
2022/04/28 09:42:29;;;;;;;8.90;2.38;;;11.50;66.80;;;;;;5083131;27;20058;-81
2022/04/28 09:44:53;;;;;;;10.40;3.72;;;11.50;66.70;;;;;;5098228;27;20430;-78
2022/04/28 09:47:20;;;;;;;9.40;3.05;;;11.50;66.90;;;;;;5099216;27;20842;-78
2022/04/28 09:49:53;;;;;;;8.80;2.70;;;11.50;67.00;;;;;;5101459;27;20138;-80
2022/04/28 09:52:29;;;;;;;11.60;3.17;;;11.50;67.20;;;;;;5082889;27;20047;-81
2022/04/28 09:54:57;;;;;;;9.65;2.58;;;11.50;67.10;;;;;;5081409;27;20259;-80
2022/04/28 09:57:23;;;;;;;8.63;2.20;;;11.50;67.20;;;;;;5096412;27;20052;-82
2022/04/28 09:59:54;;;;;;;10.40;2.85;;;11.60;67.20;;;;;;5099821;27;20377;-84
2022/04/28 10:02:25;;;;;;;13.95;3.63;;;11.70;66.80;;;;;;5069611;27;20043;-81
2022/04/28 10:04:52;;;;;;;7.05;2.92;;;11.80;65.90;;;;;;5100379;27;20372;-81
2022/04/28 10:07:20;;;;;;;9.30;3.05;;;11.90;66.20;;;;;;5101978;27;20055;-81
2022/04/28 10:09:50;;;;;;;6.93;2.30;;;11.90;66.30;;;;;;5102990;27;20490;-83
2022/04/28 10:12:22;;;;;;;7.00;2.95;;;12.00;66.10;;;;;;5097552;27;20084;-82
2022/04/28 10:14:48;;;;;;;10.75;3.13;;;12.10;65.70;;;;;;5098495;27;20071;-81
2022/04/28 10:17:19;;;;;;;9.48;2.83;;;12.10;65.00;;;;;;5080825;27;20499;-79
2022/04/28 10:20:05;;;;;;;9.48;3.33;;;12.10;64.80;;;;;;5080253;27;20082;-81
2022/04/28 10:22:36;;;;;;;4.47;2.15;;;12.10;64.90;;;;;;5101874;27;20027;-79
2022/04/28 10:33:26;;;;;;;5.93;2.22;;;12.30;64.50;;;;;;5076568;28;20084;-79
2022/04/28 10:35:54;;;;;;;8.55;2.90;;;12.30;64.20;;;;;;5079050;28;20040;-80
2022/04/28 10:38:34;;;;;;;8.85;2.72;;;12.30;64.70;;;;;;5076577;28;20123;-79
2022/04/28 10:41:06;;;;;;;10.25;3.00;;;12.30;64.10;;;;;;5078435;28;20043;-79
2022/04/28 10:43:32;;;;;;;8.55;2.65;;;12.30;64.30;;;;;;5075261;28;20047;-78
2022/04/28 10:46:22;;;;;;;7.88;3.08;;;12.30;64.40;;;;;;5078006;28;20036;-78
2022/04/28 10:48:52;;;;;;;9.48;2.70;;;12.30;63.50;;;;;;5075093;28;20138;-78
2022/04/28 10:51:23;;;;;;;9.13;2.20;;;12.40;63.20;;;;;;5077674;28;20080;-79
2022/04/28 10:54:01;;;;;;;7.20;2.30;;;12.30;63.30;;;;;;5073595;28;20531;-78
2022/04/28 10:56:52;;;;;;;7.38;2.40;;;12.30;63.50;;;;;;5077016;28;20082;-77
2022/04/28 10:59:37;;;;;;;6.35;2.97;;;12.30;63.80;;;;;;5073322;28;20102;-78
2022/04/28 11:02:13;;;;;;;7.45;3.10;;;12.30;63.90;;;;;;5058667;28;20047;-78
2022/04/28 11:04:40;;;;;;;9.50;2.78;;;12.30;63.90;;;;;;5059352;28;20040;-78
2022/04/28 11:07:09;;;;;;;8.30;2.58;;;12.30;63.80;;;;;;5059340;28;20374;-78
2022/04/28 11:09:37;;;;;;;7.63;2.50;;;12.40;63.80;;;;;;5076016;28;20047;-78
2022/04/28 11:12:22;;;;;;;8.13;2.85;;;12.40;63.30;;;;;;5059842;28;20125;-77
2022/04/28 11:15:02;;;;;;;5.70;2.83;;;12.40;63.10;;;;;;5073927;28;20036;-78
2022/04/28 11:17:30;;;;;;;10.82;2.90;;;12.40;63.50;;;;;;5076987;28;20392;-78
2022/04/28 11:20:01;;;;;;;8.38;2.58;;;12.40;63.20;;;;;;5073907;28;20044;-78
2022/04/28 11:22:28;;;;;;;6.18;2.60;;;12.40;63.30;;;;;;5057509;28;20046;-78
2022/04/28 11:24:56;;;;;;;9.80;2.92;;;12.50;63.80;;;;;;5077864;28;20097;-79
2022/04/28 11:27:23;;;;;;;12.13;3.38;;;12.50;63.50;;;;;;5057899;28;20048;-80
2022/04/28 11:29:50;;;;;;;8.60;2.78;;;12.60;63.90;;;;;;5091159;28;20059;-81
2022/04/28 11:32:16;;;;;;;14.35;4.55;;;12.60;63.40;;;;;;5094778;28;20075;-79
2022/04/28 11:34:44;;;;;;;12.15;3.33;;;12.60;63.00;;;;;;5095272;28;20044;-79
2022/04/28 11:37:18;;;;;;;9.15;2.67;;;12.60;63.00;;;;;;5080162;28;20043;-79
2022/04/28 11:39:48;;;;;;;8.10;2.30;;;12.70;63.10;;;;;;5094947;28;20079;-78
2022/04/28 11:42:16;;;;;;;5.68;2.33;;;12.70;62.70;;;;;;5078900;28;20731;-78
2022/04/28 11:44:54;;;;;;;10.52;2.30;;;12.60;62.60;;;;;;5094508;28;20075;-79
2022/04/28 11:47:20;;;;;;;13.02;2.50;;;12.50;62.80;;;;;;5096807;28;20056;-79
2022/04/28 11:49:49;;;;;;;7.03;2.30;;;12.50;63.30;;;;;;5096181;28;20055;-78
2022/04/28 11:52:31;;;;;;;5.43;2.53;;;12.50;63.80;;;;;;5090885;28;20456;-79
2022/04/28 11:54:58;;;;;;;5.60;2.30;;;12.50;63.80;;;;;;5078188;28;20078;-79
2022/04/28 11:57:25;;;;;;;9.10;3.20;;;12.60;64.30;;;;;;5102023;28;20105;-80
2022/04/28 11:59:51;;;;;;;7.00;2.13;;;12.70;64.90;;;;;;5080494;28;20039;-79
2022/04/28 12:02:32;;;;;;;6.57;2.50;;;12.70;64.10;;;;;;5098025;28;20048;-79
2022/04/28 12:05:00;;;;;;;7.72;2.20;;;12.70;63.70;;;;;;5095621;28;20047;-79
2022/04/28 12:07:36;;;;;;;9.95;2.55;;;12.70;63.30;;;;;;5068751;28;20515;-79
2022/04/28 12:15:33;;;;;;;15.85;2.92;;;12.70;64.50;;;;;;5098983;28;20044;-80
2022/04/28 12:21:00;;;;;;;10.35;2.88;;;12.90;63.00;;;;;;5097608;28;20082;-79
2022/04/28 12:23:40;;;;;;;6.07;2.67;;;13.00;63.40;;;;;;5097031;28;20123;-81
2022/04/28 12:26:08;;;;;;;9.20;2.95;;;13.10;63.60;;;;;;5098109;28;20122;-82
2022/04/28 12:28:35;;;;;;;8.13;2.72;;;13.20;63.30;;;;;;5094867;28;20097;-80
2022/04/28 12:31:04;;;;;;;10.25;3.50;;;13.20;63.60;;;;;;5099745;28;20372;-79
2022/04/28 12:33:34;;;;;;;10.00;3.42;;;13.20;63.60;;;;;;5095778;28;20039;-81
2022/04/28 12:36:02;;;;;;;5.13;2.90;;;13.30;63.70;;;;;;5098497;28;20043;-81
2022/04/28 12:38:30;;;;;;;8.60;2.83;;;13.30;62.20;;;;;;5082230;28;20059;-83
2022/04/28 12:40:56;;;;;;;6.65;2.30;;;13.30;62.40;;;;;;5099293;28;20113;-82
2022/04/28 12:43:39;;;;;;;6.80;3.30;;;13.30;61.80;;;;;;5093710;28;20048;-81
2022/04/28 12:46:06;;;;;;;6.28;3.25;;;13.30;62.20;;;;;;5083873;28;20040;-81
2022/04/28 12:48:35;;;;;;;7.63;2.85;;;13.40;61.90;;;;;;5084935;28;20115;-80
2022/04/28 12:51:18;;;;;;;8.23;3.22;;;13.40;61.90;;;;;;5085680;28;20393;-83
2022/04/28 12:53:46;;;;;;;7.68;2.50;;;13.40;61.90;;;;;;5100277;28;20027;-80
2022/04/28 12:56:17;;;;;;;5.15;2.55;;;13.50;61.80;;;;;;5084840;28;20512;-80
2022/04/28 12:58:53;;;;;;;8.77;3.40;;;13.40;62.00;;;;;;5103215;28;20086;-82
2022/04/28 13:01:20;;;;;;;9.40;2.80;;;13.30;62.60;;;;;;5106197;28;20604;-82
2022/04/28 13:03:57;;;;;;;11.40;3.45;;;13.30;62.80;;;;;;5101564;28;20043;-82
2022/04/28 13:06:27;;;;;;;7.60;2.85;;;13.40;62.80;;;;;;5102281;28;20052;-82
2022/04/28 13:08:54;;;;;;;8.65;3.30;;;13.40;63.00;;;;;;5105407;28;20127;-81
2022/04/28 13:11:28;;;;;;;12.35;3.10;;;13.50;62.80;;;;;;5088426;28;20438;-80
2022/04/28 13:13:55;;;;;;;8.32;3.30;;;13.50;63.10;;;;;;5102646;28;20036;-79
2022/04/28 13:16:21;;;;;;;6.40;3.00;;;13.50;62.30;;;;;;5059988;28;20085;-82
2022/04/28 13:18:48;;;;;;;8.27;2.95;;;13.60;61.90;;;;;;5102770;28;20047;-80
2022/04/28 13:21:15;;;;;;;10.70;3.30;;;13.60;62.00;;;;;;5086366;28;20132;-83
2022/04/28 13:23:45;;;;;;;7.95;3.33;;;13.50;61.60;;;;;;5084045;28;20484;-81
2022/04/28 13:26:12;;;;;;;9.25;3.67;;;13.50;61.50;;;;;;5094125;28;20119;-80
2022/04/28 13:28:38;;;;;;;10.10;3.30;;;13.40;62.30;;;;;;5101008;28;20082;-81
2022/04/28 13:31:04;;;;;;;9.75;3.30;;;13.30;62.80;;;;;;5092075;28;20520;-81